sensor_id;sensor_type;location;lat;lon;timestamp;P1;durP1;ratioP1;P2;durP2;ratioP2
13487;SDS011;6816;48.506;9.050;2023-04-15T00:00:10;4.33;;;1.67;;
13487;SDS011;6816;48.506;9.050;2023-04-15T00:03:11;2.53;;;1.43;;
13487;SDS011;6816;48.506;9.050;2023-04-15T00:06:12;4.17;;;1.77;;
13487;SDS011;6816;48.506;9.050;2023-04-15T00:09:13;2.33;;;1.30;;
13487;SDS011;6816;48.506;9.050;2023-04-15T00:12:14;2.00;;;1.27;;
13487;SDS011;6816;48.506;9.050;2023-04-15T00:15:15;2.00;;;1.40;;
13487;SDS011;6816;48.506;9.050;2023-04-15T00:18:15;2.33;;;1.50;;
13487;SDS011;6816;48.506;9.050;2023-04-15T00:21:16;1.97;;;1.30;;
13487;SDS011;6816;48.506;9.050;2023-04-15T00:24:16;2.07;;;1.30;;
13487;SDS011;6816;48.506;9.050;2023-04-15T00:27:17;1.90;;;1.37;;
13487;SDS011;6816;48.506;9.050;2023-04-15T00:30:18;2.60;;;1.37;;
13487;SDS011;6816;48.506;9.050;2023-04-15T00:33:19;2.00;;;1.33;;
13487;SDS011;6816;48.506;9.050;2023-04-15T00:36:20;3.43;;;1.40;;
13487;SDS011;6816;48.506;9.050;2023-04-15T00:39:22;2.17;;;1.40;;
13487;SDS011;6816;48.506;9.050;2023-04-15T00:42:22;2.00;;;1.50;;
13487;SDS011;6816;48.506;9.050;2023-04-15T00:45:24;1.70;;;1.37;;
13487;SDS011;6816;48.506;9.050;2023-04-15T00:48:27;2.53;;;1.20;;
13487;SDS011;6816;48.506;9.050;2023-04-15T00:51:27;2.60;;;1.40;;
13487;SDS011;6816;48.506;9.050;2023-04-15T00:54:32;1.90;;;1.30;;
13487;SDS011;6816;48.506;9.050;2023-04-15T00:57:33;1.17;;;1.07;;
13487;SDS011;6816;48.506;9.050;2023-04-15T01:00:35;2.80;;;1.60;;
13487;SDS011;6816;48.506;9.050;2023-04-15T01:03:36;3.57;;;1.33;;
13487;SDS011;6816;48.506;9.050;2023-04-15T01:06:36;2.80;;;1.73;;
13487;SDS011;6816;48.506;9.050;2023-04-15T01:09:37;3.53;;;1.27;;
13487;SDS011;6816;48.506;9.050;2023-04-15T01:12:38;2.33;;;1.60;;
13487;SDS011;6816;48.506;9.050;2023-04-15T01:15:39;2.63;;;1.57;;
13487;SDS011;6816;48.506;9.050;2023-04-15T01:18:40;2.53;;;1.50;;
13487;SDS011;6816;48.506;9.050;2023-04-15T01:21:41;4.57;;;1.60;;
13487;SDS011;6816;48.506;9.050;2023-04-15T01:24:43;2.63;;;1.40;;
13487;SDS011;6816;48.506;9.050;2023-04-15T01:27:54;1.80;;;1.33;;
13487;SDS011;6816;48.506;9.050;2023-04-15T01:31:05;2.83;;;1.30;;
13487;SDS011;6816;48.506;9.050;2023-04-15T01:34:10;1.90;;;1.33;;
13487;SDS011;6816;48.506;9.050;2023-04-15T01:37:11;2.63;;;1.40;;
13487;SDS011;6816;48.506;9.050;2023-04-15T01:40:11;2.57;;;1.37;;
13487;SDS011;6816;48.506;9.050;2023-04-15T01:43:12;3.37;;;1.50;;
13487;SDS011;6816;48.506;9.050;2023-04-15T01:46:14;3.20;;;1.40;;
13487;SDS011;6816;48.506;9.050;2023-04-15T01:49:15;2.33;;;1.73;;
13487;SDS011;6816;48.506;9.050;2023-04-15T01:52:16;2.97;;;1.73;;
13487;SDS011;6816;48.506;9.050;2023-04-15T01:55:16;2.87;;;1.80;;
13487;SDS011;6816;48.506;9.050;2023-04-15T01:58:17;2.73;;;1.80;;
13487;SDS011;6816;48.506;9.050;2023-04-15T02:01:18;3.53;;;1.90;;
13487;SDS011;6816;48.506;9.050;2023-04-15T02:04:19;2.63;;;1.77;;
13487;SDS011;6816;48.506;9.050;2023-04-15T02:07:20;3.43;;;1.97;;
13487;SDS011;6816;48.506;9.050;2023-04-15T02:10:20;2.17;;;1.47;;
13487;SDS011;6816;48.506;9.050;2023-04-15T02:13:22;2.93;;;2.00;;
13487;SDS011;6816;48.506;9.050;2023-04-15T02:16:22;1.93;;;1.40;;
13487;SDS011;6816;48.506;9.050;2023-04-15T02:19:23;1.63;;;1.37;;
13487;SDS011;6816;48.506;9.050;2023-04-15T02:22:24;2.10;;;1.43;;
13487;SDS011;6816;48.506;9.050;2023-04-15T02:25:24;2.97;;;1.73;;
13487;SDS011;6816;48.506;9.050;2023-04-15T02:28:25;2.57;;;1.70;;
13487;SDS011;6816;48.506;9.050;2023-04-15T02:31:26;2.63;;;1.57;;
13487;SDS011;6816;48.506;9.050;2023-04-15T02:34:27;2.40;;;1.80;;
13487;SDS011;6816;48.506;9.050;2023-04-15T02:37:27;2.03;;;1.70;;
13487;SDS011;6816;48.506;9.050;2023-04-15T02:40:29;2.63;;;1.40;;
13487;SDS011;6816;48.506;9.050;2023-04-15T02:43:30;3.47;;;1.73;;
13487;SDS011;6816;48.506;9.050;2023-04-15T02:46:30;3.83;;;1.60;;
13487;SDS011;6816;48.506;9.050;2023-04-15T02:49:31;1.47;;;1.37;;
13487;SDS011;6816;48.506;9.050;2023-04-15T02:52:32;3.43;;;1.97;;
13487;SDS011;6816;48.506;9.050;2023-04-15T02:55:33;2.20;;;1.50;;
13487;SDS011;6816;48.506;9.050;2023-04-15T02:58:34;3.57;;;2.10;;
13487;SDS011;6816;48.506;9.050;2023-04-15T03:01:35;1.90;;;1.50;;
13487;SDS011;6816;48.506;9.050;2023-04-15T03:04:35;2.77;;;1.77;;
13487;SDS011;6816;48.506;9.050;2023-04-15T03:07:36;4.00;;;1.90;;
13487;SDS011;6816;48.506;9.050;2023-04-15T03:10:36;2.43;;;1.57;;
13487;SDS011;6816;48.506;9.050;2023-04-15T03:13:37;2.03;;;1.60;;
13487;SDS011;6816;48.506;9.050;2023-04-15T03:16:40;2.80;;;1.73;;
13487;SDS011;6816;48.506;9.050;2023-04-15T03:19:41;2.97;;;1.70;;
13487;SDS011;6816;48.506;9.050;2023-04-15T03:22:43;3.00;;;1.77;;
13487;SDS011;6816;48.506;9.050;2023-04-15T03:25:43;4.60;;;2.17;;
13487;SDS011;6816;48.506;9.050;2023-04-15T03:28:44;3.43;;;2.23;;
13487;SDS011;6816;48.506;9.050;2023-04-15T03:31:44;2.43;;;1.80;;
13487;SDS011;6816;48.506;9.050;2023-04-15T03:34:45;2.27;;;1.53;;
13487;SDS011;6816;48.506;9.050;2023-04-15T03:37:46;3.20;;;2.03;;
13487;SDS011;6816;48.506;9.050;2023-04-15T03:40:48;3.23;;;2.00;;
13487;SDS011;6816;48.506;9.050;2023-04-15T03:43:48;2.43;;;1.50;;
13487;SDS011;6816;48.506;9.050;2023-04-15T03:46:51;2.07;;;1.63;;
13487;SDS011;6816;48.506;9.050;2023-04-15T03:49:51;3.03;;;1.70;;
13487;SDS011;6816;48.506;9.050;2023-04-15T03:52:52;3.57;;;1.60;;
13487;SDS011;6816;48.506;9.050;2023-04-15T03:55:52;2.10;;;1.67;;
13487;SDS011;6816;48.506;9.050;2023-04-15T03:58:53;2.93;;;1.87;;
13487;SDS011;6816;48.506;9.050;2023-04-15T04:01:54;2.77;;;1.93;;
13487;SDS011;6816;48.506;9.050;2023-04-15T04:04:54;3.07;;;2.00;;
13487;SDS011;6816;48.506;9.050;2023-04-15T04:07:55;3.27;;;2.30;;
13487;SDS011;6816;48.506;9.050;2023-04-15T04:10:56;3.37;;;2.07;;
13487;SDS011;6816;48.506;9.050;2023-04-15T04:13:57;5.23;;;2.23;;
13487;SDS011;6816;48.506;9.050;2023-04-15T04:16:57;3.00;;;1.97;;
13487;SDS011;6816;48.506;9.050;2023-04-15T04:19:58;4.43;;;2.13;;
13487;SDS011;6816;48.506;9.050;2023-04-15T04:22:59;2.60;;;1.83;;
13487;SDS011;6816;48.506;9.050;2023-04-15T04:25:59;4.00;;;2.00;;
13487;SDS011;6816;48.506;9.050;2023-04-15T04:29:00;2.80;;;2.10;;
13487;SDS011;6816;48.506;9.050;2023-04-15T04:32:01;2.73;;;2.07;;
13487;SDS011;6816;48.506;9.050;2023-04-15T04:35:01;3.00;;;1.70;;
13487;SDS011;6816;48.506;9.050;2023-04-15T04:38:03;2.90;;;1.83;;
13487;SDS011;6816;48.506;9.050;2023-04-15T04:41:04;4.20;;;2.20;;
13487;SDS011;6816;48.506;9.050;2023-04-15T04:44:05;2.37;;;1.90;;
13487;SDS011;6816;48.506;9.050;2023-04-15T04:47:06;2.10;;;1.80;;
13487;SDS011;6816;48.506;9.050;2023-04-15T04:50:06;3.57;;;1.73;;
13487;SDS011;6816;48.506;9.050;2023-04-15T04:53:08;2.60;;;1.73;;
13487;SDS011;6816;48.506;9.050;2023-04-15T04:56:09;2.20;;;1.60;;
13487;SDS011;6816;48.506;9.050;2023-04-15T04:59:10;2.33;;;1.73;;
13487;SDS011;6816;48.506;9.050;2023-04-15T05:02:10;3.30;;;1.80;;
13487;SDS011;6816;48.506;9.050;2023-04-15T05:05:11;2.47;;;1.87;;
13487;SDS011;6816;48.506;9.050;2023-04-15T05:08:12;5.10;;;2.17;;
13487;SDS011;6816;48.506;9.050;2023-04-15T05:11:12;3.53;;;2.07;;
13487;SDS011;6816;48.506;9.050;2023-04-15T05:14:13;2.87;;;1.80;;
13487;SDS011;6816;48.506;9.050;2023-04-15T05:17:14;2.27;;;1.90;;
13487;SDS011;6816;48.506;9.050;2023-04-15T05:20:14;2.47;;;1.57;;
13487;SDS011;6816;48.506;9.050;2023-04-15T05:23:15;3.03;;;1.83;;
13487;SDS011;6816;48.506;9.050;2023-04-15T05:26:16;2.83;;;1.93;;
13487;SDS011;6816;48.506;9.050;2023-04-15T05:29:17;3.90;;;2.23;;
13487;SDS011;6816;48.506;9.050;2023-04-15T05:32:17;2.50;;;2.07;;
13487;SDS011;6816;48.506;9.050;2023-04-15T05:35:18;3.13;;;1.83;;
13487;SDS011;6816;48.506;9.050;2023-04-15T05:38:19;3.97;;;2.63;;
13487;SDS011;6816;48.506;9.050;2023-04-15T05:41:19;3.53;;;1.90;;
13487;SDS011;6816;48.506;9.050;2023-04-15T05:44:20;7.20;;;2.47;;
13487;SDS011;6816;48.506;9.050;2023-04-15T05:47:21;3.00;;;2.07;;
13487;SDS011;6816;48.506;9.050;2023-04-15T05:50:21;5.77;;;2.20;;
13487;SDS011;6816;48.506;9.050;2023-04-15T05:53:22;3.20;;;1.90;;
13487;SDS011;6816;48.506;9.050;2023-04-15T05:56:22;4.27;;;2.23;;
13487;SDS011;6816;48.506;9.050;2023-04-15T05:59:25;4.07;;;2.20;;
13487;SDS011;6816;48.506;9.050;2023-04-15T06:02:27;3.93;;;2.10;;
13487;SDS011;6816;48.506;9.050;2023-04-15T06:05:27;2.93;;;2.23;;
13487;SDS011;6816;48.506;9.050;2023-04-15T06:08:28;3.37;;;2.10;;
13487;SDS011;6816;48.506;9.050;2023-04-15T06:11:29;3.10;;;1.93;;
13487;SDS011;6816;48.506;9.050;2023-04-15T06:14:30;2.67;;;1.97;;
13487;SDS011;6816;48.506;9.050;2023-04-15T06:17:31;3.30;;;2.07;;
13487;SDS011;6816;48.506;9.050;2023-04-15T06:20:31;2.50;;;1.90;;
13487;SDS011;6816;48.506;9.050;2023-04-15T06:23:35;2.40;;;1.83;;
13487;SDS011;6816;48.506;9.050;2023-04-15T06:26:36;2.53;;;2.00;;
13487;SDS011;6816;48.506;9.050;2023-04-15T06:29:36;3.43;;;1.90;;
13487;SDS011;6816;48.506;9.050;2023-04-15T06:32:37;5.97;;;2.23;;
13487;SDS011;6816;48.506;9.050;2023-04-15T06:35:38;3.37;;;2.20;;
13487;SDS011;6816;48.506;9.050;2023-04-15T06:38:39;6.07;;;2.50;;
13487;SDS011;6816;48.506;9.050;2023-04-15T06:41:40;3.73;;;2.33;;
13487;SDS011;6816;48.506;9.050;2023-04-15T06:44:41;4.10;;;2.80;;
13487;SDS011;6816;48.506;9.050;2023-04-15T06:47:42;3.03;;;2.10;;
13487;SDS011;6816;48.506;9.050;2023-04-15T06:50:42;4.30;;;2.43;;
13487;SDS011;6816;48.506;9.050;2023-04-15T06:53:43;2.83;;;2.33;;
13487;SDS011;6816;48.506;9.050;2023-04-15T06:56:43;3.87;;;2.23;;
13487;SDS011;6816;48.506;9.050;2023-04-15T06:59:44;3.90;;;2.50;;
13487;SDS011;6816;48.506;9.050;2023-04-15T07:02:46;3.40;;;2.53;;
13487;SDS011;6816;48.506;9.050;2023-04-15T07:05:46;5.43;;;2.57;;
13487;SDS011;6816;48.506;9.050;2023-04-15T07:08:47;3.27;;;2.67;;
13487;SDS011;6816;48.506;9.050;2023-04-15T07:11:48;3.57;;;2.63;;
13487;SDS011;6816;48.506;9.050;2023-04-15T07:14:49;6.67;;;2.67;;
13487;SDS011;6816;48.506;9.050;2023-04-15T07:17:50;4.27;;;2.83;;
13487;SDS011;6816;48.506;9.050;2023-04-15T07:20:50;3.47;;;2.50;;
13487;SDS011;6816;48.506;9.050;2023-04-15T07:23:51;3.70;;;2.63;;
13487;SDS011;6816;48.506;9.050;2023-04-15T07:26:52;4.83;;;2.47;;
13487;SDS011;6816;48.506;9.050;2023-04-15T07:29:55;4.43;;;2.47;;
13487;SDS011;6816;48.506;9.050;2023-04-15T07:32:57;5.23;;;2.53;;
13487;SDS011;6816;48.506;9.050;2023-04-15T07:35:58;4.63;;;2.90;;
13487;SDS011;6816;48.506;9.050;2023-04-15T07:38:58;3.67;;;2.40;;
13487;SDS011;6816;48.506;9.050;2023-04-15T07:42:01;4.27;;;2.60;;
13487;SDS011;6816;48.506;9.050;2023-04-15T07:45:01;3.37;;;2.60;;
13487;SDS011;6816;48.506;9.050;2023-04-15T07:48:02;3.87;;;2.70;;
13487;SDS011;6816;48.506;9.050;2023-04-15T07:51:03;4.73;;;2.77;;
13487;SDS011;6816;48.506;9.050;2023-04-15T07:54:05;3.47;;;2.47;;
13487;SDS011;6816;48.506;9.050;2023-04-15T07:57:05;3.10;;;2.47;;
13487;SDS011;6816;48.506;9.050;2023-04-15T08:00:07;3.30;;;2.40;;
13487;SDS011;6816;48.506;9.050;2023-04-15T08:03:08;3.20;;;2.10;;
13487;SDS011;6816;48.506;9.050;2023-04-15T08:06:08;2.73;;;2.20;;
13487;SDS011;6816;48.506;9.050;2023-04-15T08:09:09;3.73;;;2.83;;
13487;SDS011;6816;48.506;9.050;2023-04-15T08:12:10;4.40;;;2.73;;
13487;SDS011;6816;48.506;9.050;2023-04-15T08:15:12;3.37;;;2.60;;
13487;SDS011;6816;48.506;9.050;2023-04-15T08:18:13;2.43;;;2.03;;
13487;SDS011;6816;48.506;9.050;2023-04-15T08:21:14;4.90;;;2.57;;
13487;SDS011;6816;48.506;9.050;2023-04-15T08:24:15;4.00;;;2.40;;
13487;SDS011;6816;48.506;9.050;2023-04-15T08:27:16;4.40;;;2.33;;
13487;SDS011;6816;48.506;9.050;2023-04-15T08:30:17;2.40;;;2.00;;
13487;SDS011;6816;48.506;9.050;2023-04-15T08:33:18;3.97;;;2.30;;
13487;SDS011;6816;48.506;9.050;2023-04-15T08:36:19;4.63;;;2.13;;
13487;SDS011;6816;48.506;9.050;2023-04-15T08:39:20;3.60;;;2.27;;
13487;SDS011;6816;48.506;9.050;2023-04-15T08:42:22;5.83;;;2.47;;
13487;SDS011;6816;48.506;9.050;2023-04-15T08:45:30;3.70;;;2.83;;
13487;SDS011;6816;48.506;9.050;2023-04-15T08:48:31;6.30;;;4.10;;
13487;SDS011;6816;48.506;9.050;2023-04-15T08:51:33;7.07;;;4.87;;
13487;SDS011;6816;48.506;9.050;2023-04-15T08:54:34;4.93;;;3.70;;
13487;SDS011;6816;48.506;9.050;2023-04-15T08:57:36;6.37;;;3.50;;
13487;SDS011;6816;48.506;9.050;2023-04-15T09:00:37;3.67;;;2.63;;
13487;SDS011;6816;48.506;9.050;2023-04-15T09:03:38;4.23;;;2.27;;
13487;SDS011;6816;48.506;9.050;2023-04-15T09:06:39;3.13;;;2.40;;
13487;SDS011;6816;48.506;9.050;2023-04-15T09:09:40;4.13;;;2.47;;
13487;SDS011;6816;48.506;9.050;2023-04-15T09:12:41;4.07;;;2.20;;
13487;SDS011;6816;48.506;9.050;2023-04-15T09:15:41;3.63;;;2.30;;
13487;SDS011;6816;48.506;9.050;2023-04-15T09:18:42;4.83;;;2.40;;
13487;SDS011;6816;48.506;9.050;2023-04-15T09:21:45;3.63;;;2.63;;
13487;SDS011;6816;48.506;9.050;2023-04-15T09:24:46;4.43;;;2.83;;
13487;SDS011;6816;48.506;9.050;2023-04-15T09:27:48;3.20;;;2.80;;
13487;SDS011;6816;48.506;9.050;2023-04-15T09:30:50;6.50;;;2.70;;
13487;SDS011;6816;48.506;9.050;2023-04-15T09:33:55;4.77;;;2.90;;
13487;SDS011;6816;48.506;9.050;2023-04-15T09:36:56;3.40;;;2.67;;
13487;SDS011;6816;48.506;9.050;2023-04-15T09:39:56;4.00;;;2.70;;
13487;SDS011;6816;48.506;9.050;2023-04-15T09:42:57;4.67;;;2.93;;
13487;SDS011;6816;48.506;9.050;2023-04-15T09:45:58;3.77;;;2.83;;
13487;SDS011;6816;48.506;9.050;2023-04-15T09:49:08;5.83;;;3.33;;
13487;SDS011;6816;48.506;9.050;2023-04-15T09:52:12;5.53;;;3.03;;
13487;SDS011;6816;48.506;9.050;2023-04-15T09:55:14;4.97;;;2.73;;
13487;SDS011;6816;48.506;9.050;2023-04-15T09:58:26;2.93;;;2.37;;
13487;SDS011;6816;48.506;9.050;2023-04-15T10:01:28;3.73;;;2.30;;
13487;SDS011;6816;48.506;9.050;2023-04-15T10:04:29;4.37;;;2.57;;
13487;SDS011;6816;48.506;9.050;2023-04-15T10:07:34;3.70;;;2.70;;
13487;SDS011;6816;48.506;9.050;2023-04-15T10:10:35;3.23;;;2.37;;
13487;SDS011;6816;48.506;9.050;2023-04-15T10:13:36;6.13;;;2.40;;
13487;SDS011;6816;48.506;9.050;2023-04-15T10:16:37;6.70;;;2.90;;
13487;SDS011;6816;48.506;9.050;2023-04-15T10:19:42;3.37;;;2.40;;
13487;SDS011;6816;48.506;9.050;2023-04-15T10:22:43;4.32;;;2.40;;
13487;SDS011;6816;48.506;9.050;2023-04-15T10:25:45;3.20;;;2.03;;
13487;SDS011;6816;48.506;9.050;2023-04-15T10:28:47;5.03;;;3.03;;
13487;SDS011;6816;48.506;9.050;2023-04-15T10:31:48;3.38;;;2.25;;
13487;SDS011;6816;48.506;9.050;2023-04-15T10:34:49;3.60;;;2.47;;
13487;SDS011;6816;48.506;9.050;2023-04-15T10:37:51;4.00;;;2.60;;
13487;SDS011;6816;48.506;9.050;2023-04-15T10:40:52;4.47;;;2.40;;
13487;SDS011;6816;48.506;9.050;2023-04-15T10:46:54;3.25;;;1.75;;
13487;SDS011;6816;48.506;9.050;2023-04-15T10:49:58;2.78;;;1.55;;
13487;SDS011;6816;48.506;9.050;2023-04-15T10:53:03;2.83;;;1.90;;
13487;SDS011;6816;48.506;9.050;2023-04-15T10:56:04;3.17;;;2.10;;
13487;SDS011;6816;48.506;9.050;2023-04-15T10:59:05;4.15;;;2.25;;
13487;SDS011;6816;48.506;9.050;2023-04-15T11:02:06;4.72;;;2.20;;
13487;SDS011;6816;48.506;9.050;2023-04-15T11:05:08;2.97;;;1.77;;
13487;SDS011;6816;48.506;9.050;2023-04-15T11:08:10;2.88;;;2.13;;
13487;SDS011;6816;48.506;9.050;2023-04-15T11:11:12;2.92;;;2.05;;
13487;SDS011;6816;48.506;9.050;2023-04-15T11:14:15;2.55;;;1.90;;
13487;SDS011;6816;48.506;9.050;2023-04-15T11:17:25;3.33;;;1.88;;
13487;SDS011;6816;48.506;9.050;2023-04-15T11:20:27;3.22;;;1.85;;
13487;SDS011;6816;48.506;9.050;2023-04-15T11:23:30;5.72;;;2.15;;
13487;SDS011;6816;48.506;9.050;2023-04-15T11:26:38;2.70;;;1.88;;
13487;SDS011;6816;48.506;9.050;2023-04-15T11:29:39;3.15;;;1.65;;
13487;SDS011;6816;48.506;9.050;2023-04-15T11:32:42;2.50;;;1.77;;
13487;SDS011;6816;48.506;9.050;2023-04-15T11:35:43;4.10;;;1.90;;
13487;SDS011;6816;48.506;9.050;2023-04-15T11:38:45;2.42;;;1.50;;
13487;SDS011;6816;48.506;9.050;2023-04-15T11:41:46;2.63;;;1.65;;
13487;SDS011;6816;48.506;9.050;2023-04-15T11:44:47;2.40;;;1.48;;
13487;SDS011;6816;48.506;9.050;2023-04-15T11:47:47;1.55;;;1.38;;
13487;SDS011;6816;48.506;9.050;2023-04-15T11:50:55;1.67;;;1.20;;
13487;SDS011;6816;48.506;9.050;2023-04-15T11:54:05;3.03;;;1.63;;
13487;SDS011;6816;48.506;9.050;2023-04-15T11:57:06;1.48;;;1.02;;
13487;SDS011;6816;48.506;9.050;2023-04-15T12:00:07;2.00;;;1.20;;
13487;SDS011;6816;48.506;9.050;2023-04-15T12:06:18;2.97;;;1.70;;
13487;SDS011;6816;48.506;9.050;2023-04-15T12:09:23;2.10;;;1.40;;
13487;SDS011;6816;48.506;9.050;2023-04-15T12:12:27;2.45;;;1.30;;
13487;SDS011;6816;48.506;9.050;2023-04-15T12:15:28;2.25;;;1.38;;
13487;SDS011;6816;48.506;9.050;2023-04-15T12:18:28;2.05;;;1.20;;
13487;SDS011;6816;48.506;9.050;2023-04-15T12:21:32;2.70;;;1.33;;
13487;SDS011;6816;48.506;9.050;2023-04-15T12:24:34;3.15;;;1.20;;
13487;SDS011;6816;48.506;9.050;2023-04-15T12:27:36;2.80;;;1.40;;
13487;SDS011;6816;48.506;9.050;2023-04-15T12:30:47;1.70;;;1.42;;
13487;SDS011;6816;48.506;9.050;2023-04-15T12:33:50;2.55;;;1.55;;
13487;SDS011;6816;48.506;9.050;2023-04-15T12:36:51;1.63;;;1.30;;
13487;SDS011;6816;48.506;9.050;2023-04-15T12:39:52;2.35;;;1.35;;
13487;SDS011;6816;48.506;9.050;2023-04-15T12:42:53;2.67;;;1.70;;
13487;SDS011;6816;48.506;9.050;2023-04-15T12:45:55;3.33;;;1.88;;
13487;SDS011;6816;48.506;9.050;2023-04-15T12:48:56;3.83;;;2.13;;
13487;SDS011;6816;48.506;9.050;2023-04-15T12:51:57;2.92;;;1.95;;
13487;SDS011;6816;48.506;9.050;2023-04-15T12:54:59;2.80;;;1.80;;
13487;SDS011;6816;48.506;9.050;2023-04-15T12:58:00;4.47;;;1.52;;
13487;SDS011;6816;48.506;9.050;2023-04-15T13:01:01;3.33;;;1.73;;
13487;SDS011;6816;48.506;9.050;2023-04-15T13:04:02;2.55;;;1.45;;
13487;SDS011;6816;48.506;9.050;2023-04-15T13:07:03;3.22;;;1.63;;
13487;SDS011;6816;48.506;9.050;2023-04-15T13:10:04;2.90;;;1.40;;
13487;SDS011;6816;48.506;9.050;2023-04-15T13:13:05;2.25;;;1.30;;
13487;SDS011;6816;48.506;9.050;2023-04-15T13:16:05;2.83;;;1.70;;
13487;SDS011;6816;48.506;9.050;2023-04-15T13:19:06;3.55;;;2.05;;
13487;SDS011;6816;48.506;9.050;2023-04-15T13:22:07;2.85;;;2.25;;
13487;SDS011;6816;48.506;9.050;2023-04-15T13:25:07;4.35;;;2.05;;
13487;SDS011;6816;48.506;9.050;2023-04-15T13:28:10;2.60;;;2.13;;
13487;SDS011;6816;48.506;9.050;2023-04-15T13:31:11;2.78;;;2.50;;
13487;SDS011;6816;48.506;9.050;2023-04-15T13:34:11;3.70;;;2.20;;
13487;SDS011;6816;48.506;9.050;2023-04-15T13:37:12;2.58;;;2.10;;
13487;SDS011;6816;48.506;9.050;2023-04-15T13:40:13;2.40;;;2.20;;
13487;SDS011;6816;48.506;9.050;2023-04-15T13:43:13;2.70;;;1.92;;
13487;SDS011;6816;48.506;9.050;2023-04-15T13:46:14;2.78;;;1.70;;
13487;SDS011;6816;48.506;9.050;2023-04-15T13:49:15;2.60;;;1.75;;
13487;SDS011;6816;48.506;9.050;2023-04-15T13:52:16;3.95;;;1.98;;
13487;SDS011;6816;48.506;9.050;2023-04-15T13:55:16;2.03;;;1.80;;
13487;SDS011;6816;48.506;9.050;2023-04-15T13:58:17;2.97;;;1.95;;
13487;SDS011;6816;48.506;9.050;2023-04-15T14:01:18;3.42;;;2.30;;
13487;SDS011;6816;48.506;9.050;2023-04-15T14:04:18;3.38;;;2.67;;
13487;SDS011;6816;48.506;9.050;2023-04-15T14:07:19;4.85;;;2.20;;
13487;SDS011;6816;48.506;9.050;2023-04-15T14:10:20;4.10;;;2.50;;
13487;SDS011;6816;48.506;9.050;2023-04-15T14:13:20;4.03;;;2.00;;
13487;SDS011;6816;48.506;9.050;2023-04-15T14:16:21;4.27;;;2.43;;
13487;SDS011;6816;48.506;9.050;2023-04-15T14:19:22;2.97;;;2.33;;
13487;SDS011;6816;48.506;9.050;2023-04-15T14:22:23;2.87;;;2.47;;
13487;SDS011;6816;48.506;9.050;2023-04-15T14:25:23;2.60;;;2.40;;
13487;SDS011;6816;48.506;9.050;2023-04-15T14:28:26;2.40;;;2.17;;
13487;SDS011;6816;48.506;9.050;2023-04-15T14:31:27;3.37;;;2.23;;
13487;SDS011;6816;48.506;9.050;2023-04-15T14:34:27;2.23;;;1.70;;
13487;SDS011;6816;48.506;9.050;2023-04-15T14:37:29;2.50;;;1.60;;
13487;SDS011;6816;48.506;9.050;2023-04-15T14:40:30;2.07;;;1.70;;
13487;SDS011;6816;48.506;9.050;2023-04-15T14:43:32;2.53;;;1.43;;
13487;SDS011;6816;48.506;9.050;2023-04-15T14:46:33;1.93;;;1.73;;
13487;SDS011;6816;48.506;9.050;2023-04-15T14:49:34;2.77;;;2.00;;
13487;SDS011;6816;48.506;9.050;2023-04-15T14:52:35;3.70;;;1.73;;
13487;SDS011;6816;48.506;9.050;2023-04-15T14:55:38;2.20;;;1.70;;
13487;SDS011;6816;48.506;9.050;2023-04-15T14:58:39;1.67;;;1.57;;
13487;SDS011;6816;48.506;9.050;2023-04-15T15:01:39;1.63;;;1.27;;
13487;SDS011;6816;48.506;9.050;2023-04-15T15:04:40;2.97;;;1.43;;
13487;SDS011;6816;48.506;9.050;2023-04-15T15:07:41;1.30;;;1.17;;
13487;SDS011;6816;48.506;9.050;2023-04-15T15:10:41;1.40;;;0.90;;
13487;SDS011;6816;48.506;9.050;2023-04-15T15:13:42;1.40;;;1.27;;
13487;SDS011;6816;48.506;9.050;2023-04-15T15:16:43;1.20;;;1.10;;
13487;SDS011;6816;48.506;9.050;2023-04-15T15:19:43;3.53;;;1.00;;
13487;SDS011;6816;48.506;9.050;2023-04-15T15:22:44;1.63;;;1.10;;
13487;SDS011;6816;48.506;9.050;2023-04-15T15:25:45;1.37;;;1.00;;
13487;SDS011;6816;48.506;9.050;2023-04-15T15:28:46;2.53;;;1.07;;
13487;SDS011;6816;48.506;9.050;2023-04-15T15:31:49;1.70;;;1.37;;
13487;SDS011;6816;48.506;9.050;2023-04-15T15:34:50;2.80;;;1.60;;
13487;SDS011;6816;48.506;9.050;2023-04-15T15:37:51;2.83;;;1.47;;
13487;SDS011;6816;48.506;9.050;2023-04-15T15:40:51;2.33;;;1.50;;
13487;SDS011;6816;48.506;9.050;2023-04-15T15:43:53;2.57;;;1.73;;
13487;SDS011;6816;48.506;9.050;2023-04-15T15:46:53;2.10;;;1.90;;
13487;SDS011;6816;48.506;9.050;2023-04-15T15:49:54;2.57;;;1.83;;
13487;SDS011;6816;48.506;9.050;2023-04-15T15:52:55;3.50;;;1.70;;
13487;SDS011;6816;48.506;9.050;2023-04-15T15:55:57;2.03;;;1.50;;
13487;SDS011;6816;48.506;9.050;2023-04-15T15:58:58;2.13;;;1.67;;
13487;SDS011;6816;48.506;9.050;2023-04-15T16:01:59;3.57;;;2.20;;
13487;SDS011;6816;48.506;9.050;2023-04-15T16:05:00;2.77;;;1.90;;
13487;SDS011;6816;48.506;9.050;2023-04-15T16:08:00;1.80;;;1.70;;
13487;SDS011;6816;48.506;9.050;2023-04-15T16:11:01;2.10;;;1.70;;
13487;SDS011;6816;48.506;9.050;2023-04-15T16:14:02;3.63;;;1.90;;
13487;SDS011;6816;48.506;9.050;2023-04-15T16:17:03;3.40;;;1.93;;
13487;SDS011;6816;48.506;9.050;2023-04-15T16:20:04;3.40;;;1.80;;
13487;SDS011;6816;48.506;9.050;2023-04-15T16:23:11;2.17;;;1.60;;
13487;SDS011;6816;48.506;9.050;2023-04-15T16:26:15;2.17;;;1.53;;
13487;SDS011;6816;48.506;9.050;2023-04-15T16:29:16;2.70;;;1.70;;
13487;SDS011;6816;48.506;9.050;2023-04-15T16:32:16;2.50;;;1.90;;
13487;SDS011;6816;48.506;9.050;2023-04-15T16:35:17;3.07;;;1.60;;
13487;SDS011;6816;48.506;9.050;2023-04-15T16:38:18;4.13;;;1.97;;
13487;SDS011;6816;48.506;9.050;2023-04-15T16:41:18;3.10;;;2.37;;
13487;SDS011;6816;48.506;9.050;2023-04-15T16:44:20;2.27;;;1.80;;
13487;SDS011;6816;48.506;9.050;2023-04-15T16:47:20;2.23;;;1.70;;
13487;SDS011;6816;48.506;9.050;2023-04-15T16:50:21;2.63;;;1.80;;
13487;SDS011;6816;48.506;9.050;2023-04-15T16:53:22;1.90;;;1.70;;
13487;SDS011;6816;48.506;9.050;2023-04-15T16:56:22;1.90;;;1.43;;
13487;SDS011;6816;48.506;9.050;2023-04-15T16:59:24;2.17;;;1.40;;
13487;SDS011;6816;48.506;9.050;2023-04-15T17:02:24;2.33;;;1.50;;
13487;SDS011;6816;48.506;9.050;2023-04-15T17:05:25;1.80;;;1.13;;
13487;SDS011;6816;48.506;9.050;2023-04-15T17:08:29;1.43;;;1.30;;
13487;SDS011;6816;48.506;9.050;2023-04-15T17:11:30;1.07;;;0.93;;
13487;SDS011;6816;48.506;9.050;2023-04-15T17:14:31;1.43;;;1.13;;
13487;SDS011;6816;48.506;9.050;2023-04-15T17:17:32;3.73;;;0.90;;
13487;SDS011;6816;48.506;9.050;2023-04-15T17:20:33;1.63;;;1.10;;
13487;SDS011;6816;48.506;9.050;2023-04-15T17:23:33;2.53;;;1.20;;
13487;SDS011;6816;48.506;9.050;2023-04-15T17:26:34;1.90;;;1.27;;
13487;SDS011;6816;48.506;9.050;2023-04-15T17:29:34;2.20;;;1.43;;
13487;SDS011;6816;48.506;9.050;2023-04-15T17:32:35;2.50;;;1.10;;
13487;SDS011;6816;48.506;9.050;2023-04-15T17:35:38;1.33;;;1.17;;
13487;SDS011;6816;48.506;9.050;2023-04-15T17:38:39;1.50;;;1.20;;
13487;SDS011;6816;48.506;9.050;2023-04-15T17:41:40;1.20;;;1.10;;
13487;SDS011;6816;48.506;9.050;2023-04-15T17:44:41;1.83;;;1.17;;
13487;SDS011;6816;48.506;9.050;2023-04-15T17:47:41;1.40;;;1.20;;
13487;SDS011;6816;48.506;9.050;2023-04-15T17:50:42;1.20;;;1.00;;
13487;SDS011;6816;48.506;9.050;2023-04-15T17:53:43;1.37;;;1.27;;
13487;SDS011;6816;48.506;9.050;2023-04-15T17:56:43;1.47;;;1.23;;
13487;SDS011;6816;48.506;9.050;2023-04-15T17:59:44;1.87;;;1.20;;
13487;SDS011;6816;48.506;9.050;2023-04-15T18:02:46;2.43;;;2.20;;
13487;SDS011;6816;48.506;9.050;2023-04-15T18:05:47;2.93;;;2.13;;
13487;SDS011;6816;48.506;9.050;2023-04-15T18:08:48;2.30;;;1.83;;
13487;SDS011;6816;48.506;9.050;2023-04-15T18:11:49;1.57;;;1.37;;
13487;SDS011;6816;48.506;9.050;2023-04-15T18:14:49;1.50;;;1.30;;
13487;SDS011;6816;48.506;9.050;2023-04-15T18:17:50;1.73;;;1.23;;
13487;SDS011;6816;48.506;9.050;2023-04-15T18:20:51;1.90;;;1.40;;
13487;SDS011;6816;48.506;9.050;2023-04-15T18:23:52;1.20;;;1.10;;
13487;SDS011;6816;48.506;9.050;2023-04-15T18:26:52;2.03;;;1.67;;
13487;SDS011;6816;48.506;9.050;2023-04-15T18:29:53;1.00;;;0.90;;
13487;SDS011;6816;48.506;9.050;2023-04-15T18:32:54;1.47;;;1.30;;